Time;durP1;ratioP1;P1;durP2;ratioP2;P2;SDS_P1;SDS_P2;PMS_P1;PMS_P2;Temp;Humidity;BMP_temperature;BMP_pressure;BME280_temperature;BME280_humidity;BME280_pressure;Samples;Min_cycle;Max_cycle;Signal;HPM_P1;HPM_P2
2022/03/17 00:00:13;;;;;;;23.00;17.95;;;10.50;99.90;;;;;;5115018;28;20097;-73
2022/03/17 00:02:40;;;;;;;23.98;16.00;;;10.40;99.90;;;;;;5115142;28;20544;-73
2022/03/17 00:05:10;;;;;;;21.80;16.17;;;10.40;99.90;;;;;;5111104;28;20390;-73
2022/03/17 00:07:41;;;;;;;30.15;17.38;;;10.40;99.90;;;;;;5099899;28;20065;-73
2022/03/17 00:10:10;;;;;;;24.23;16.42;;;10.40;99.90;;;;;;5111451;28;20040;-73
2022/03/17 00:12:36;;;;;;;20.80;14.95;;;10.40;99.90;;;;;;5112929;28;20050;-74
2022/03/17 00:15:04;;;;;;;21.40;16.52;;;10.40;99.90;;;;;;5112517;28;20070;-73
2022/03/17 00:17:30;;;;;;;23.42;16.90;;;10.40;99.90;;;;;;5112529;28;20529;-73
2022/03/17 00:19:56;;;;;;;26.98;16.63;;;10.40;99.90;;;;;;5113777;28;20492;-73
2022/03/17 00:22:22;;;;;;;20.65;15.77;;;10.40;99.90;;;;;;5114556;28;20131;-73
2022/03/17 00:24:48;;;;;;;23.95;17.77;;;10.40;99.90;;;;;;5113250;28;20096;-73
2022/03/17 00:27:14;;;;;;;27.25;17.58;;;10.30;99.90;;;;;;5114729;28;20128;-74
2022/03/17 00:29:40;;;;;;;20.35;17.10;;;10.30;99.90;;;;;;5114426;28;20493;-73
2022/03/17 00:32:07;;;;;;;26.33;17.58;;;10.30;99.90;;;;;;5113771;28;20051;-73
2022/03/17 00:35:35;;;;;;;28.42;18.63;;;10.30;99.90;;;;;;5112215;28;20043;-73
2022/03/17 00:37:24;;;;;;;23.80;18.13;;;10.30;99.90;;;;;;5093991;28;20135;-73
2022/03/17 00:39:51;;;;;;;23.45;18.10;;;10.30;99.90;;;;;;5103966;28;20040;-73
2022/03/17 00:42:17;;;;;;;23.05;16.73;;;10.30;99.90;;;;;;5114607;28;20120;-73
2022/03/17 00:44:43;;;;;;;24.15;18.13;;;10.30;99.90;;;;;;5113039;28;20051;-74
2022/03/17 00:47:09;;;;;;;22.83;18.27;;;10.30;99.90;;;;;;5112971;28;20040;-73
2022/03/17 00:49:34;;;;;;;21.88;17.50;;;10.20;99.90;;;;;;5093680;28;20105;-73
2022/03/17 00:52:00;;;;;;;25.23;18.13;;;10.20;99.90;;;;;;5114290;28;20055;-73
2022/03/17 00:54:26;;;;;;;27.98;17.73;;;10.20;99.90;;;;;;5112780;28;20096;-73
2022/03/17 00:56:52;;;;;;;23.13;17.05;;;10.20;99.90;;;;;;5114139;28;20051;-74
2022/03/17 00:59:19;;;;;;;25.10;18.65;;;10.20;99.90;;;;;;5113103;28;20039;-73
2022/03/17 01:01:44;;;;;;;26.92;18.95;;;10.20;99.90;;;;;;5094136;28;20110;-73
2022/03/17 01:04:10;;;;;;;24.33;18.05;;;10.20;99.90;;;;;;5110444;28;20047;-73
2022/03/17 01:06:36;;;;;;;23.38;17.83;;;10.20;99.90;;;;;;5093071;28;20044;-73
2022/03/17 01:09:02;;;;;;;25.58;18.80;;;10.20;99.90;;;;;;5093702;28;20487;-74
2022/03/17 01:11:28;;;;;;;22.90;17.65;;;10.20;99.90;;;;;;5095046;28;20079;-73
2022/03/17 01:13:53;;;;;;;27.35;18.48;;;10.20;99.90;;;;;;5112727;28;20079;-73
2022/03/17 01:16:19;;;;;;;23.98;17.23;;;10.20;99.90;;;;;;5114032;28;20043;-73
2022/03/17 01:18:45;;;;;;;27.80;18.63;;;10.20;99.90;;;;;;5111461;28;20185;-73
2022/03/17 01:21:11;;;;;;;23.42;17.98;;;10.20;99.90;;;;;;5101825;28;20054;-73
2022/03/17 01:23:36;;;;;;;28.30;20.27;;;10.20;99.90;;;;;;5113011;28;20364;-74
2022/03/17 01:26:02;;;;;;;26.88;17.88;;;10.20;99.90;;;;;;5114082;28;20040;-73
2022/03/17 01:28:28;;;;;;;24.42;17.40;;;10.20;99.90;;;;;;5112732;28;20070;-74
2022/03/17 01:30:54;;;;;;;25.05;18.25;;;10.20;99.90;;;;;;5113780;28;20563;-73
2022/03/17 01:33:20;;;;;;;24.83;19.48;;;10.20;99.90;;;;;;5113235;28;20059;-74
2022/03/17 01:35:46;;;;;;;28.55;18.83;;;10.20;99.90;;;;;;5083446;28;20059;-73
2022/03/17 01:38:12;;;;;;;25.70;17.63;;;10.20;99.90;;;;;;5085862;28;20043;-73
2022/03/17 01:40:37;;;;;;;26.48;18.65;;;10.20;99.90;;;;;;5113688;28;20039;-73
2022/03/17 01:43:03;;;;;;;23.13;19.00;;;10.20;99.90;;;;;;5112411;28;20046;-73
2022/03/17 01:45:29;;;;;;;25.10;18.38;;;10.20;99.90;;;;;;5113856;28;20040;-73
2022/03/17 01:47:55;;;;;;;24.77;18.23;;;10.20;99.90;;;;;;5112979;28;20074;-74
2022/03/17 01:50:21;;;;;;;26.67;19.25;;;10.20;99.90;;;;;;5110680;28;20460;-73
2022/03/17 01:52:47;;;;;;;27.25;19.67;;;10.20;99.90;;;;;;5113247;28;20044;-73
2022/03/17 01:55:15;;;;;;;25.98;18.13;;;10.20;99.90;;;;;;5094896;28;20108;-73
2022/03/17 01:57:41;;;;;;;24.63;19.95;;;10.20;99.90;;;;;;5115721;28;20035;-74
2022/03/17 02:00:13;;;;;;;27.27;19.77;;;10.20;99.90;;;;;;5116629;28;20444;-74
2022/03/17 02:02:40;;;;;;;25.15;19.45;;;10.20;99.90;;;;;;5116279;28;20123;-74
2022/03/17 02:05:06;;;;;;;28.65;21.88;;;10.20;99.90;;;;;;5117382;28;20536;-73
2022/03/17 02:07:32;;;;;;;28.50;20.80;;;10.20;99.90;;;;;;5117171;28;20052;-74
2022/03/17 02:09:59;;;;;;;26.35;19.17;;;10.20;99.90;;;;;;5108603;28;20044;-73
2022/03/17 02:15:10;;;;;;;30.55;20.70;;;10.10;99.90;;;;;;5095046;28;20043;-74
2022/03/17 02:17:40;;;;;;;28.70;20.27;;;10.10;99.90;;;;;;5116086;28;20054;-73
2022/03/17 02:20:09;;;;;;;22.63;19.77;;;10.10;99.90;;;;;;5116971;28;20044;-74
2022/03/17 02:22:47;;;;;;;24.00;20.92;;;10.10;99.90;;;;;;5099099;28;20448;-74
2022/03/17 02:27:59;;;;;;;29.33;22.08;;;10.10;99.90;;;;;;5116944;28;20043;-74
2022/03/17 02:30:26;;;;;;;27.55;21.40;;;10.10;99.90;;;;;;5105589;28;20092;-74
2022/03/17 02:32:59;;;;;;;27.02;21.65;;;10.10;99.90;;;;;;5115605;28;20058;-74
2022/03/17 02:35:25;;;;;;;29.55;21.38;;;10.10;99.90;;;;;;5116690;28;20043;-74
2022/03/17 02:37:52;;;;;;;26.95;20.67;;;10.10;99.90;;;;;;5116113;28;20206;-73
2022/03/17 02:40:18;;;;;;;29.05;21.50;;;10.10;99.90;;;;;;5098008;28;20126;-74
2022/03/17 02:42:45;;;;;;;26.95;20.45;;;10.10;99.90;;;;;;5116722;28;20043;-74
2022/03/17 02:45:11;;;;;;;26.48;21.00;;;10.10;99.90;;;;;;5101239;28;20052;-74
2022/03/17 02:47:38;;;;;;;25.33;21.17;;;10.10;99.90;;;;;;5116809;28;20039;-74
2022/03/17 02:50:05;;;;;;;25.45;20.58;;;10.10;99.90;;;;;;5116513;28;20059;-74
2022/03/17 02:52:31;;;;;;;27.42;22.08;;;10.10;99.90;;;;;;5114913;28;20399;-74
2022/03/17 02:54:57;;;;;;;27.35;22.25;;;10.10;99.90;;;;;;5098209;28;20050;-74
2022/03/17 02:57:23;;;;;;;25.45;21.52;;;10.10;99.90;;;;;;5116123;28;20043;-74
2022/03/17 02:59:49;;;;;;;31.63;22.75;;;10.10;99.90;;;;;;5115106;28;20498;-74
2022/03/17 03:02:15;;;;;;;28.42;22.58;;;10.10;99.90;;;;;;5115703;28;20514;-74
2022/03/17 03:04:41;;;;;;;27.25;23.08;;;10.10;99.90;;;;;;5077846;28;20048;-73
2022/03/17 03:07:08;;;;;;;30.67;23.13;;;10.10;99.90;;;;;;5107943;28;20387;-74
2022/03/17 03:09:34;;;;;;;33.45;22.90;;;10.20;99.90;;;;;;5097869;28;20125;-74
2022/03/17 03:12:00;;;;;;;25.30;21.02;;;10.20;99.90;;;;;;5115620;28;20513;-74
2022/03/17 03:14:27;;;;;;;26.38;22.85;;;10.20;99.90;;;;;;5115331;28;20043;-74
2022/03/17 03:16:52;;;;;;;28.67;22.85;;;10.20;99.90;;;;;;5097549;28;20036;-73
2022/03/17 03:19:19;;;;;;;30.42;23.77;;;10.30;99.90;;;;;;5115499;28;20062;-74
2022/03/17 03:21:44;;;;;;;31.45;23.88;;;10.30;99.90;;;;;;5114427;28;20056;-73
2022/03/17 03:24:11;;;;;;;29.13;22.88;;;10.30;99.90;;;;;;5096338;28;20400;-74
2022/03/17 03:26:38;;;;;;;28.23;23.67;;;10.30;99.90;;;;;;5115608;28;20398;-73
2022/03/17 03:29:06;;;;;;;26.88;22.75;;;10.30;99.90;;;;;;5115236;28;20055;-73
2022/03/17 03:31:34;;;;;;;28.85;23.55;;;10.40;99.90;;;;;;5115340;28;20502;-73
2022/03/17 03:34:00;;;;;;;28.67;22.77;;;10.40;99.90;;;;;;5078925;28;20048;-73
2022/03/17 03:39:10;;;;;;;34.40;26.00;;;10.40;99.90;;;;;;5097461;28;20054;-73
2022/03/17 03:41:36;;;;;;;34.45;27.90;;;10.40;99.90;;;;;;5114335;28;20035;-74
2022/03/17 03:44:03;;;;;;;32.08;26.90;;;10.30;99.90;;;;;;5115148;28;20040;-73
2022/03/17 03:46:29;;;;;;;35.30;29.58;;;10.20;99.90;;;;;;5096803;28;20122;-73
2022/03/17 03:48:55;;;;;;;33.75;28.15;;;10.20;99.90;;;;;;5094431;28;20143;-73
2022/03/17 03:51:21;;;;;;;36.90;31.05;;;10.10;99.90;;;;;;5091233;28;20097;-73
2022/03/17 03:56:31;;;;;;;35.40;31.40;;;10.00;99.90;;;;;;5098772;28;20122;-73
2022/03/17 03:59:01;;;;;;;36.70;29.85;;;9.90;99.90;;;;;;5097275;28;20475;-73
2022/03/17 04:01:26;;;;;;;41.45;32.53;;;9.90;99.90;;;;;;5096319;28;20044;-73
2022/03/17 04:03:54;;;;;;;41.22;32.60;;;9.90;99.90;;;;;;5097538;28;20185;-72
2022/03/17 04:06:20;;;;;;;46.35;33.08;;;9.80;99.90;;;;;;5114831;28;20044;-72
2022/03/17 04:08:46;;;;;;;42.90;33.78;;;9.80;99.90;;;;;;5115072;28;20044;-72
2022/03/17 04:11:11;;;;;;;42.65;34.00;;;9.80;99.90;;;;;;5113903;28;20043;-72
2022/03/17 04:13:37;;;;;;;45.08;34.63;;;9.70;99.90;;;;;;5096861;28;20082;-72
2022/03/17 04:16:03;;;;;;;40.20;32.78;;;9.70;99.90;;;;;;5095532;28;20044;-72
2022/03/17 04:18:29;;;;;;;42.83;34.28;;;9.70;99.90;;;;;;5110524;28;20517;-73
2022/03/17 04:20:54;;;;;;;48.17;35.08;;;9.70;99.90;;;;;;5096542;28;20054;-73
2022/03/17 04:23:20;;;;;;;49.08;36.22;;;9.60;99.90;;;;;;5113879;28;20040;-72
2022/03/17 04:25:46;;;;;;;49.10;37.00;;;9.60;99.90;;;;;;5113991;28;20044;-72
2022/03/17 04:28:11;;;;;;;48.15;36.83;;;9.60;99.90;;;;;;5114323;28;20051;-72
2022/03/17 04:30:39;;;;;;;53.08;37.92;;;9.60;99.90;;;;;;5113854;28;20096;-72
2022/03/17 04:33:05;;;;;;;48.45;37.30;;;9.60;99.90;;;;;;5110348;28;20449;-72
2022/03/17 04:35:31;;;;;;;53.30;36.58;;;9.60;99.90;;;;;;5114713;28;20039;-72
2022/03/17 04:37:57;;;;;;;54.13;37.47;;;9.60;99.90;;;;;;5113214;28;20051;-72
2022/03/17 04:40:23;;;;;;;55.35;37.53;;;9.60;99.90;;;;;;5113635;28;20130;-73
2022/03/17 04:42:49;;;;;;;42.67;28.13;;;9.60;99.90;;;;;;5114272;28;20075;-73
2022/03/17 04:45:14;;;;;;;19.65;13.75;;;9.60;99.90;;;;;;5113215;28;20399;-72
2022/03/17 04:47:40;;;;;;;13.23;9.70;;;9.60;99.90;;;;;;5112310;28;20096;-71
2022/03/17 04:50:07;;;;;;;9.02;8.00;;;9.40;99.90;;;;;;5099931;28;20104;-72
2022/03/17 04:55:17;;;;;;;8.40;7.20;;;9.00;99.90;;;;;;5113921;28;20073;-72
2022/03/17 04:57:43;;;;;;;10.93;8.25;;;8.80;99.90;;;;;;5114341;28;20281;-72
2022/03/17 05:00:10;;;;;;;12.57;6.95;;;8.70;99.90;;;;;;5113192;28;20567;-72
2022/03/17 05:02:36;;;;;;;8.98;7.00;;;8.60;99.90;;;;;;5114094;28;20039;-71
2022/03/17 05:05:03;;;;;;;8.40;6.95;;;8.50;99.90;;;;;;5080651;28;20174;-72
2022/03/17 05:07:29;;;;;;;10.30;6.68;;;8.40;99.90;;;;;;5093065;28;20044;-71
2022/03/17 05:09:55;;;;;;;8.30;6.75;;;8.40;99.90;;;;;;5072901;28;20040;-72
2022/03/17 05:12:20;;;;;;;9.63;6.70;;;8.30;99.90;;;;;;5093713;28;20079;-73
2022/03/17 05:14:46;;;;;;;8.00;5.82;;;8.30;99.90;;;;;;5112878;28;20042;-71
2022/03/17 05:17:12;;;;;;;9.15;6.25;;;8.20;99.90;;;;;;5093775;28;20040;-72
2022/03/17 05:19:37;;;;;;;7.50;6.35;;;8.20;99.90;;;;;;5111653;28;20063;-72
2022/03/17 05:22:03;;;;;;;12.68;7.03;;;8.10;99.90;;;;;;5094541;28;20051;-72
2022/03/17 05:24:30;;;;;;;13.40;7.68;;;8.10;99.90;;;;;;5113387;28;20035;-72
2022/03/17 05:26:57;;;;;;;18.13;8.70;;;8.10;99.90;;;;;;5112489;28;20047;-72
2022/03/17 05:29:23;;;;;;;17.10;8.63;;;8.00;99.90;;;;;;5113643;28;20074;-73
2022/03/17 05:31:49;;;;;;;19.30;8.68;;;8.10;99.90;;;;;;5115167;28;20494;-73
2022/03/17 05:34:15;;;;;;;21.75;10.82;;;8.00;99.90;;;;;;5115342;28;20071;-73
2022/03/17 05:36:41;;;;;;;23.95;10.10;;;8.00;99.90;;;;;;5117688;28;20094;-73
2022/03/17 05:39:07;;;;;;;18.63;9.45;;;8.00;99.90;;;;;;5114292;28;20069;-73
2022/03/17 05:41:33;;;;;;;21.45;9.80;;;7.90;99.90;;;;;;5081566;28;20047;-73
2022/03/17 05:43:58;;;;;;;23.25;10.82;;;7.90;99.90;;;;;;5099460;28;20047;-72
2022/03/17 05:46:25;;;;;;;21.73;9.85;;;7.90;99.90;;;;;;5099316;28;20040;-73
2022/03/17 05:48:53;;;;;;;19.10;9.35;;;7.90;99.90;;;;;;5116290;28;20058;-73
2022/03/17 05:51:18;;;;;;;24.23;9.63;;;7.90;99.90;;;;;;5117193;28;20090;-73
2022/03/17 05:53:44;;;;;;;22.33;8.18;;;7.80;99.90;;;;;;5110642;28;20075;-72
2022/03/17 05:56:10;;;;;;;15.15;5.32;;;7.80;99.90;;;;;;5098536;28;20053;-72
2022/03/17 05:58:36;;;;;;;21.77;7.35;;;7.80;99.90;;;;;;5117487;28;20036;-73
2022/03/17 06:01:02;;;;;;;17.60;6.82;;;7.80;99.90;;;;;;5117727;28;20047;-73
2022/03/17 06:03:28;;;;;;;11.10;5.20;;;7.80;99.90;;;;;;5098599;28;20192;-73
2022/03/17 06:05:54;;;;;;;25.58;6.90;;;7.70;99.90;;;;;;5117466;28;20101;-73
2022/03/17 06:08:20;;;;;;;15.55;5.88;;;7.70;99.90;;;;;;5087176;28;20048;-73
2022/03/17 06:10:45;;;;;;;19.33;6.20;;;7.70;99.90;;;;;;5077338;28;20522;-73
2022/03/17 06:13:11;;;;;;;17.77;5.22;;;7.70;99.90;;;;;;5100611;28;20055;-73
2022/03/17 06:15:37;;;;;;;23.25;5.40;;;7.70;99.90;;;;;;5098016;28;20054;-73
2022/03/17 06:18:05;;;;;;;22.80;5.00;;;7.60;99.90;;;;;;5116533;28;20044;-73
2022/03/17 06:20:33;;;;;;;19.02;5.22;;;7.60;99.90;;;;;;5116552;28;20046;-73
2022/03/17 06:23:01;;;;;;;19.33;4.97;;;7.60;99.90;;;;;;5113709;28;20067;-74
2022/03/17 06:25:29;;;;;;;20.20;5.28;;;7.60;99.90;;;;;;5113508;28;20468;-73
2022/03/17 06:27:55;;;;;;;19.10;3.85;;;7.60;99.90;;;;;;5116625;28;20089;-73
2022/03/17 06:30:24;;;;;;;12.80;4.07;;;7.60;99.90;;;;;;5116267;28;20075;-72
2022/03/17 06:32:50;;;;;;;16.75;3.47;;;7.60;99.90;;;;;;5097712;28;20044;-73
2022/03/17 06:35:24;;;;;;;13.55;3.40;;;7.60;99.90;;;;;;5099138;28;20439;-73
2022/03/17 06:37:53;;;;;;;9.60;2.50;;;7.60;99.90;;;;;;5094800;28;20044;-73
2022/03/17 06:40:19;;;;;;;15.13;3.35;;;7.60;99.90;;;;;;5116848;28;20044;-73
2022/03/17 06:42:46;;;;;;;13.65;2.80;;;7.60;99.90;;;;;;5114092;28;20035;-73
2022/03/17 06:45:12;;;;;;;10.30;2.60;;;7.50;99.90;;;;;;5115473;28;20046;-73
2022/03/17 06:47:39;;;;;;;11.55;2.13;;;7.50;99.90;;;;;;5115096;28;20040;-73
2022/03/17 06:50:07;;;;;;;11.25;2.47;;;7.50;99.90;;;;;;5115894;28;20059;-73
2022/03/17 06:52:33;;;;;;;12.88;2.38;;;7.50;99.90;;;;;;5113464;28;20052;-74
2022/03/17 06:54:59;;;;;;;11.05;2.15;;;7.50;99.90;;;;;;5113460;28;20035;-74
2022/03/17 06:57:24;;;;;;;15.48;3.13;;;7.50;99.90;;;;;;5095607;28;20040;-74
2022/03/17 06:59:53;;;;;;;8.82;1.75;;;7.50;99.90;;;;;;5094816;28;20047;-73
2022/03/17 07:02:20;;;;;;;11.50;2.08;;;7.50;99.90;;;;;;5090780;28;20504;-73
2022/03/17 07:04:46;;;;;;;15.13;4.35;;;7.50;99.90;;;;;;5097126;28;20130;-74
2022/03/17 07:07:13;;;;;;;13.50;3.42;;;7.50;99.90;;;;;;5111876;28;20043;-74
2022/03/17 07:09:41;;;;;;;13.48;2.17;;;7.50;99.90;;;;;;5095601;28;20040;-74
2022/03/17 07:12:07;;;;;;;5.97;1.42;;;7.50;99.90;;;;;;5112202;28;20543;-73
2022/03/17 07:14:33;;;;;;;12.85;3.22;;;7.50;99.90;;;;;;5116164;28;20044;-73
2022/03/17 07:16:59;;;;;;;11.38;1.98;;;7.60;99.90;;;;;;5114149;28;20039;-73
2022/03/17 07:19:24;;;;;;;12.27;2.30;;;7.50;99.90;;;;;;5095624;28;20044;-73
2022/03/17 07:21:53;;;;;;;14.27;2.58;;;7.60;99.90;;;;;;5116179;28;20039;-73
2022/03/17 07:24:19;;;;;;;19.35;2.13;;;7.60;99.90;;;;;;5110081;28;20043;-73
2022/03/17 07:26:45;;;;;;;12.23;2.00;;;7.50;99.90;;;;;;5113758;28;20035;-73
2022/03/17 07:29:11;;;;;;;15.15;3.88;;;7.50;99.90;;;;;;5097035;28;20047;-73
2022/03/17 07:31:37;;;;;;;12.80;2.22;;;7.50;99.90;;;;;;5115063;28;20043;-73
2022/03/17 07:34:03;;;;;;;15.13;2.75;;;7.50;99.90;;;;;;5096040;28;20449;-73
2022/03/17 07:36:28;;;;;;;8.85;1.70;;;7.40;99.90;;;;;;5115936;28;20039;-73
2022/03/17 07:38:55;;;;;;;10.20;1.90;;;7.50;99.90;;;;;;5112914;28;20039;-73
2022/03/17 07:41:22;;;;;;;6.55;1.35;;;7.50;99.90;;;;;;5094299;28;20523;-73
2022/03/17 07:43:48;;;;;;;9.27;1.75;;;7.50;99.90;;;;;;5077493;28;20048;-73
2022/03/17 07:46:14;;;;;;;15.98;3.72;;;7.50;99.90;;;;;;5077104;28;20052;-73
2022/03/17 07:48:41;;;;;;;19.00;3.13;;;7.50;99.90;;;;;;5076023;28;20095;-73
2022/03/17 07:51:08;;;;;;;15.43;2.53;;;7.50;99.90;;;;;;5103987;28;20050;-73
2022/03/17 07:53:34;;;;;;;13.90;2.08;;;7.50;99.90;;;;;;5114996;28;20402;-73
2022/03/17 07:56:02;;;;;;;17.00;2.92;;;7.50;99.90;;;;;;5114740;28;20051;-74
2022/03/17 07:58:28;;;;;;;16.52;3.60;;;7.50;99.90;;;;;;5097180;28;20490;-74
2022/03/17 08:00:55;;;;;;;13.27;2.25;;;7.50;99.90;;;;;;5097242;28;20047;-73
2022/03/17 08:03:22;;;;;;;19.55;4.00;;;7.50;99.90;;;;;;5114360;28;20493;-73
2022/03/17 08:05:49;;;;;;;11.20;2.20;;;7.50;99.90;;;;;;5107430;28;20036;-74
2022/03/17 08:08:15;;;;;;;20.33;3.13;;;7.50;99.90;;;;;;5094141;28;20044;-73
2022/03/17 08:10:41;;;;;;;20.38;3.50;;;7.50;99.90;;;;;;5076745;28;20481;-74
2022/03/17 08:13:09;;;;;;;14.38;2.58;;;7.50;99.90;;;;;;5094745;28;20090;-74
2022/03/17 08:15:40;;;;;;;13.30;2.40;;;7.60;99.90;;;;;;5075976;28;20059;-73
2022/03/17 08:18:06;;;;;;;10.55;2.13;;;7.60;99.90;;;;;;5078827;28;20410;-73
2022/03/17 08:20:37;;;;;;;25.27;3.83;;;7.60;99.90;;;;;;5115042;28;20057;-73
2022/03/17 08:23:03;;;;;;;12.13;2.80;;;7.60;99.90;;;;;;5113987;28;20126;-73
2022/03/17 08:25:29;;;;;;;14.27;2.00;;;7.60;99.90;;;;;;5096458;28;20123;-74
2022/03/17 08:27:55;;;;;;;21.00;2.67;;;7.60;99.90;;;;;;5114647;28;20202;-73
2022/03/17 08:30:21;;;;;;;13.23;1.90;;;7.50;99.90;;;;;;5113819;28;20075;-73
2022/03/17 08:32:48;;;;;;;15.13;2.20;;;7.50;99.90;;;;;;5112516;28;20475;-73
2022/03/17 08:35:15;;;;;;;14.55;2.95;;;7.50;99.90;;;;;;5094383;28;20055;-74
2022/03/17 08:37:45;;;;;;;21.27;2.88;;;7.50;99.90;;;;;;5075178;28;20389;-73
2022/03/17 08:40:13;;;;;;;16.88;2.40;;;7.50;99.90;;;;;;5094277;28;20047;-74
2022/03/17 08:42:40;;;;;;;17.58;4.25;;;7.50;99.90;;;;;;5076276;28;20391;-73
2022/03/17 08:50:43;;;;;;;11.98;2.95;;;7.60;99.90;;;;;;5113506;28;20047;-74
2022/03/17 08:53:09;;;;;;;16.05;3.00;;;7.70;99.90;;;;;;5114330;28;20097;-74
2022/03/17 08:55:37;;;;;;;18.85;2.75;;;7.80;99.90;;;;;;5114466;28;20043;-74
2022/03/17 08:58:07;;;;;;;11.52;2.67;;;7.80;99.90;;;;;;5095127;28;20055;-73
2022/03/17 09:00:34;;;;;;;21.58;2.17;;;7.80;99.90;;;;;;5114341;28;20039;-74
2022/03/17 09:03:03;;;;;;;23.38;2.60;;;7.80;99.90;;;;;;5105097;28;20097;-73
2022/03/17 09:05:30;;;;;;;12.82;2.95;;;7.80;99.90;;;;;;5092090;28;20487;-73
2022/03/17 09:07:56;;;;;;;12.82;2.22;;;7.70;99.90;;;;;;5093662;28;20364;-74
2022/03/17 09:10:23;;;;;;;12.90;2.85;;;7.70;99.90;;;;;;5094042;28;20398;-74
2022/03/17 09:12:54;;;;;;;13.70;2.75;;;7.70;99.90;;;;;;5092997;28;20051;-73
2022/03/17 09:15:20;;;;;;;15.48;2.42;;;7.70;99.90;;;;;;5075992;28;20048;-74
2022/03/17 09:17:46;;;;;;;11.45;2.00;;;7.90;99.90;;;;;;5102314;28;20502;-73
2022/03/17 09:20:15;;;;;;;11.13;2.20;;;8.00;99.90;;;;;;5107601;28;20114;-74
2022/03/17 09:22:42;;;;;;;13.57;2.83;;;8.20;99.90;;;;;;5100830;28;20044;-74
2022/03/17 09:25:09;;;;;;;18.02;2.38;;;8.30;99.90;;;;;;5093510;28;20044;-73
2022/03/17 09:27:35;;;;;;;17.30;2.80;;;8.40;99.90;;;;;;5092758;28;20055;-74
2022/03/17 09:30:01;;;;;;;15.52;2.95;;;8.50;99.90;;;;;;5093581;28;20040;-73
2022/03/17 09:32:26;;;;;;;8.10;2.22;;;8.60;99.90;;;;;;5075460;28;20048;-73
2022/03/17 09:34:52;;;;;;;12.43;2.33;;;8.70;99.90;;;;;;5074260;28;20044;-74
2022/03/17 09:37:18;;;;;;;10.63;2.20;;;8.80;99.90;;;;;;5101236;28;20028;-73
2022/03/17 09:39:47;;;;;;;11.65;1.80;;;8.90;99.90;;;;;;5113112;28;20107;-73
2022/03/17 09:42:15;;;;;;;9.32;2.20;;;9.00;99.90;;;;;;5113964;28;20432;-74
2022/03/17 09:44:42;;;;;;;14.63;4.13;;;9.00;99.90;;;;;;5113771;28;20127;-73
2022/03/17 09:47:09;;;;;;;9.57;1.92;;;9.10;99.90;;;;;;5112794;28;20055;-73
2022/03/17 09:49:37;;;;;;;16.33;4.22;;;9.00;99.90;;;;;;5113219;28;20051;-74
2022/03/17 09:52:10;;;;;;;11.23;2.20;;;9.00;99.90;;;;;;5095969;28;20052;-74
2022/03/17 09:54:36;;;;;;;12.50;2.70;;;9.00;99.90;;;;;;5041792;28;20040;-74
2022/03/17 09:57:02;;;;;;;11.98;2.95;;;9.10;99.90;;;;;;5093268;28;20052;-73
2022/03/17 09:59:28;;;;;;;17.25;2.47;;;9.20;99.90;;;;;;5093452;28;20059;-74
2022/03/17 10:01:54;;;;;;;14.68;2.65;;;9.20;99.90;;;;;;5092328;28;20414;-73
2022/03/17 10:04:19;;;;;;;16.50;3.13;;;9.30;99.90;;;;;;5093336;28;20043;-74
2022/03/17 10:06:47;;;;;;;8.90;1.98;;;9.40;99.90;;;;;;5108667;28;20487;-74
2022/03/17 10:09:13;;;;;;;15.15;3.88;;;9.50;99.90;;;;;;5112309;28;20035;-73
2022/03/17 10:11:40;;;;;;;11.65;2.70;;;9.60;99.90;;;;;;5113566;28;20395;-73
2022/03/17 10:14:06;;;;;;;13.65;3.97;;;9.80;99.90;;;;;;5078686;28;20048;-73
2022/03/17 10:16:35;;;;;;;12.05;2.25;;;10.00;99.90;;;;;;5113547;28;20042;-74
2022/03/17 10:19:08;;;;;;;10.27;2.00;;;9.90;99.90;;;;;;5099021;28;20044;-73
2022/03/17 10:21:34;;;;;;;11.48;2.50;;;9.90;99.90;;;;;;5085825;28;20058;-73
2022/03/17 10:24:08;;;;;;;9.93;1.98;;;9.90;99.90;;;;;;5095985;28;20036;-73
2022/03/17 10:26:44;;;;;;;10.88;2.45;;;10.00;99.90;;;;;;5078610;28;20078;-72
2022/03/17 10:29:20;;;;;;;9.45;2.38;;;10.00;99.90;;;;;;5096306;28;20075;-74
2022/03/17 10:31:59;;;;;;;18.17;2.65;;;10.00;99.90;;;;;;5097033;28;20044;-73
2022/03/17 10:34:31;;;;;;;12.50;2.65;;;10.00;99.90;;;;;;5096783;28;20403;-73
2022/03/17 10:37:24;;;;;;;14.80;2.65;;;9.90;99.90;;;;;;5095321;28;20047;-73
2022/03/17 10:39:52;;;;;;;14.38;2.17;;;10.00;99.90;;;;;;5112519;28;20533;-74
2022/03/17 10:42:24;;;;;;;25.02;2.70;;;9.90;99.90;;;;;;5117033;28;20047;-73
2022/03/17 10:44:54;;;;;;;10.40;1.80;;;10.00;99.90;;;;;;5116098;28;20039;-73
2022/03/17 10:47:24;;;;;;;13.32;1.70;;;10.20;99.90;;;;;;5116978;28;20401;-73
2022/03/17 10:50:00;;;;;;;14.68;2.60;;;10.30;99.90;;;;;;5114719;28;20067;-73
2022/03/17 10:52:45;;;;;;;12.43;2.63;;;10.20;99.90;;;;;;5097825;28;20048;-73
2022/03/17 10:55:11;;;;;;;10.98;2.58;;;10.20;99.90;;;;;;5096267;28;20044;-73
2022/03/17 10:57:38;;;;;;;10.90;2.72;;;9.90;99.90;;;;;;5095460;28;20429;-73
2022/03/17 11:00:09;;;;;;;26.67;2.80;;;9.70;99.90;;;;;;5078222;28;20048;-73
2022/03/17 11:02:37;;;;;;;13.27;2.92;;;9.70;99.90;;;;;;5096499;28;20491;-74
2022/03/17 11:05:06;;;;;;;13.82;3.00;;;9.60;99.90;;;;;;5095289;28;20040;-74
2022/03/17 11:07:32;;;;;;;10.52;2.85;;;9.80;99.90;;;;;;5087894;28;20122;-73
2022/03/17 11:10:07;;;;;;;16.05;3.45;;;10.00;99.90;;;;;;5116283;28;20042;-74
2022/03/17 11:12:34;;;;;;;11.90;2.72;;;10.10;99.90;;;;;;5115330;28;20139;-74
2022/03/17 11:15:03;;;;;;;13.68;2.58;;;10.30;99.90;;;;;;5116392;28;20121;-74
2022/03/17 11:17:36;;;;;;;15.13;2.88;;;10.40;99.90;;;;;;5116211;28;20103;-74
2022/03/17 11:20:10;;;;;;;11.10;2.38;;;10.50;99.90;;;;;;5114101;28;20414;-73
2022/03/17 11:22:36;;;;;;;12.57;2.28;;;10.60;99.90;;;;;;5077905;28;20506;-73
2022/03/17 11:25:32;;;;;;;12.88;2.05;;;10.60;99.90;;;;;;5095488;28;20028;-74
2022/03/17 11:28:00;;;;;;;16.17;2.63;;;10.60;99.90;;;;;;5076886;28;20048;-74
2022/03/17 11:30:47;;;;;;;14.63;2.70;;;10.70;99.90;;;;;;5077728;28;20040;-74
2022/03/17 11:33:43;;;;;;;10.35;1.80;;;10.70;99.90;;;;;;5094529;28;20094;-74
2022/03/17 11:36:08;;;;;;;7.50;2.13;;;10.70;99.90;;;;;;5107400;28;20058;-73
2022/03/17 11:38:39;;;;;;;15.73;2.65;;;10.60;99.90;;;;;;5115959;28;20043;-73
2022/03/17 11:41:08;;;;;;;10.52;2.55;;;10.70;99.90;;;;;;5097005;28;20039;-73
2022/03/17 11:43:46;;;;;;;11.52;2.33;;;11.00;99.90;;;;;;5110674;28;20539;-73
2022/03/17 11:46:16;;;;;;;12.65;2.42;;;11.00;99.90;;;;;;5095491;28;20048;-73
2022/03/17 11:48:43;;;;;;;16.70;2.40;;;11.10;99.90;;;;;;5060262;28;20056;-74
2022/03/17 11:51:12;;;;;;;10.25;2.60;;;11.10;99.90;;;;;;5076891;28;20105;-74
2022/03/17 11:53:59;;;;;;;15.30;3.53;;;11.10;99.90;;;;;;5094345;28;20040;-74
2022/03/17 11:56:47;;;;;;;13.23;2.40;;;11.10;99.90;;;;;;5059575;28;20059;-74
2022/03/17 11:59:16;;;;;;;7.18;2.50;;;11.10;99.90;;;;;;5098281;28;20052;-73
2022/03/17 12:01:44;;;;;;;14.75;2.33;;;10.90;99.90;;;;;;5080110;28;20495;-73
2022/03/17 12:04:32;;;;;;;15.13;3.58;;;11.00;99.90;;;;;;5060182;28;20051;-73
2022/03/17 12:07:13;;;;;;;13.07;3.10;;;11.00;99.90;;;;;;5078240;28;20040;-73
2022/03/17 12:09:40;;;;;;;16.60;2.25;;;11.00;99.90;;;;;;5093909;28;20040;-73
2022/03/17 12:12:25;;;;;;;15.75;2.33;;;11.00;99.90;;;;;;5094817;28;20415;-73
2022/03/17 12:14:57;;;;;;;;;;;11.00;99.90;;;;;;5096749;28;20051;-74
2022/03/17 12:17:28;;;;;;;13.68;2.50;;;10.90;99.90;;;;;;5076652;28;19923;-73
2022/03/17 12:20:19;;;;;;;9.88;2.75;;;10.80;99.90;;;;;;5076807;28;20051;-74
2022/03/17 12:22:45;;;;;;;11.90;2.20;;;10.80;99.90;;;;;;5060410;28;20048;-73
2022/03/17 12:25:15;;;;;;;10.82;2.35;;;10.70;99.90;;;;;;5094373;28;20048;-73
2022/03/17 12:27:43;;;;;;;15.88;2.35;;;10.60;99.90;;;;;;5076343;28;20131;-74
2022/03/17 12:30:14;;;;;;;16.13;3.33;;;10.60;99.90;;;;;;5110772;28;20040;-73
2022/03/17 12:33:04;;;;;;;12.43;2.20;;;10.70;99.90;;;;;;5096787;28;20048;-73
2022/03/17 12:35:32;;;;;;;10.95;2.67;;;10.80;99.90;;;;;;5114041;28;20395;-73
2022/03/17 12:38:09;;;;;;;10.35;2.20;;;10.90;99.90;;;;;;5096706;28;20185;-73
2022/03/17 12:40:43;;;;;;;11.63;2.22;;;10.80;99.90;;;;;;5114653;28;20059;-73
2022/03/17 12:43:17;;;;;;;10.23;2.42;;;10.90;99.90;;;;;;5112206;28;20113;-73
2022/03/17 12:45:44;;;;;;;14.65;3.25;;;10.90;99.90;;;;;;5114695;28;20395;-73
2022/03/17 12:48:11;;;;;;;9.13;2.17;;;10.90;99.90;;;;;;5114247;28;20050;-74
2022/03/17 12:50:37;;;;;;;18.10;2.25;;;11.00;99.90;;;;;;5113464;28;20083;-73
2022/03/17 12:53:03;;;;;;;14.75;2.63;;;11.00;99.90;;;;;;5114263;28;20043;-74
2022/03/17 12:55:29;;;;;;;17.08;3.08;;;11.00;99.90;;;;;;5114476;28;20043;-73
2022/03/17 12:57:56;;;;;;;13.55;2.42;;;11.00;99.90;;;;;;5111858;28;20086;-74
2022/03/17 13:00:23;;;;;;;9.55;2.10;;;11.20;99.90;;;;;;5114432;28;20061;-73
2022/03/17 13:02:57;;;;;;;9.07;2.20;;;11.20;99.90;;;;;;5114354;28;20039;-73